Burley, ID (83318)

8:17 PM MST on December 18, 2014 (GMT -0700)
4 miles west of Burley | Change Station
CLOSE
Current Station
Personal Weather Station
Location: Burley, ID
Elevation: 4134 ft
Nearby Weather Stations
Active Advisory: Special Weather Statement

Elev 4134 ft 42.55 °N, 113.87 °W | Updated 27 seconds ago

Overcast
Overcast
34.3 °F
Feels Like 34 °F
N
0.0
Wind Variable Wind from North
Gusts 0.0 mph

Today
High -- | Low -- °F
--% Chance of Precip.
Yesterday
High -- | Low -- °F
Precip. -- in
7:59 AM 5:03 PM
Waning Crescent, 10% visible
Pressure 30.19 in
Visibility 10.0 miles
Clouds Overcast 7000 ft
Windchill 34 °F
Dew Point 30 °F
Humidity 82%
Rainfall 0.00 in
Snow Depth Not available.
UV 0 out of 12
Pollen .10 out of 12
Air Quality Not available.
Flu Activity Not available.
METAR KBYI 190253Z AUTO 20004KT 10SM OVC070 01/M02 A3012 RMK AO2 SLP224 T00111022 53005

More Conditions Fewer Conditions

Pressure 30.19 in
Visibility 10.0 miles
Clouds Overcast 7000 ft
Windchill 34 °F
Dew Point 30 °F
Humidity 82%
Rainfall 0.00 in
Snow Depth Not available.
UV 0 out of 12
Pollen .10 out of 12
Air Quality Not available.
Flu Activity Not available.
METAR KBYI 190253Z AUTO 20004KT 10SM OVC070 01/M02 A3012 RMK AO2 SLP224 T00111022 53005

More Conditions Fewer Conditions

10-Day Weather Forecast

Almanac

Astronomy

Dec. 18, 2014 Rise Set
Actual Time
Civil Twilight
Nautical Twilight
Astronomical Twilight
Moon
Length of Visible Light
Length of Day
Tomorrow will be .
, % of the Moon is Illuminated

Today's Extremes

State Highs State Lows

Community

WunderPhotos

Upload Photos

1,778,994 photos uploaded!

WunderBlogs® & News

Nearby

Air Quality

  Air Quality AQ Index Pollutant
Not available.

Snow Depth

Station Depth Elevation

Earthquake Activity

City Distance Mag. Time & Date
Minimum magnitude displayed is 2.5.

Coastal Water Temperatures

Place Temperature

Nearby Weather Stations